• Join FlightAware (Why Join?)
  • Login
  • US Flag 
01:00AM EDT


 

Airport Tracker/Info


-or-


 

Live Flight TrackerFlight Track Log ✈ ELT222 ✈ 20-Jun-2013 ✈ KOGD - KLSE

Flight Track Log - Related Links

Times and Time Zones

All times are in EDT time to prevent confusion due to time zone crossing. See the ELT222 flight status page for this flight to view local times or setup timezone preferences in your user account.

Time Position Orientation Groundspeed Altitude Reporting Facility
EDT Latitude Longitude Course Direction KTS MPH feet Rate Location/Type
03:40PM 41.1675 -112.0747 248° West 199 229 6,500  Level Salt Lake Center
03:41PM 41.1786 -112.1556 280° West 259 298 8,900 2,280 Climbing Salt Lake Center
03:42PM 41.2525 -112.1969 337° Northwest 290 334 11,300 2,280 Climbing Salt Lake Center
03:43PM 41.3403 -112.1944 North 323 372 13,700 2,580 Climbing Salt Lake Center
03:44PM 41.3869 -112.0617 65° Northeast 336 387 16,700 2,400 Climbing Salt Lake Center
03:45PM 41.4153 -111.9356 73° East 353 406 18,700 1,980 Climbing Salt Lake Center
03:46PM 41.4444 -111.8031 74° East 369 425 20,900 1,860 Climbing Salt Lake Center
03:47PM 41.4728 -111.6669 74° East 378 435 22,600 1,500 Climbing Salt Lake Center
03:48PM 41.5036 -111.5233 74° East 398 458 24,100 1,440 Climbing Salt Lake Center
03:49PM 41.5358 -111.3750 74° East 415 478 25,700 1,440 Climbing Salt Lake Center
03:50PM 41.5661 -111.2231 75° East 423 487 27,200 1,380 Climbing Salt Lake Center
03:51PM 41.6067 -111.0342 74° East 439 505 28,600 1,200 Climbing Salt Lake Center
03:52PM 41.6356 -110.8906 75° East 447 514 29,700 1,140 Climbing Salt Lake Center
03:53PM 41.6736 -110.7097 74° East 452 520 31,000 1,140 Climbing Salt Lake Center
03:54PM 41.7058 -110.5519 75° East 458 527 32,100 1,080 Climbing Salt Lake Center
03:55PM 41.7436 -110.3689 74° East 458 527 33,300 960 Climbing Salt Lake Center
03:56PM 41.7756 -110.2106 75° East 459 528 34,200 960 Climbing Salt Lake Center
03:57PM 41.8114 -110.0253 75° East 458 527 35,300 960 Climbing Salt Lake Center
03:58PM 41.8433 -109.8656 75° East 462 532 36,200 780 Climbing Salt Lake Center
03:59PM 41.8803 -109.6800 75° East 460 529 37,000 360 Climbing Salt Lake Center
04:00PM 41.9117 -109.5161 76° East 469 540 37,000  Level Salt Lake Center
04:01PM 41.9444 -109.3461 75° East 482 555 37,000  Level Salt Lake Center
04:03PM 41.9844 -109.1439 75° East 495 570 37,000  Level Salt Lake Center
04:04PM 42.0172 -108.9681 76° East 501 577 37,000  Level Salt Lake Center
04:05PM 42.0561 -108.7619 76° East 507 583 37,000  Level Salt Lake Center
04:06PM 42.0892 -108.5847 76° East 509 586 37,000  Level Salt Lake Center
04:07PM 42.1275 -108.3775 76° East 509 586 37,000  Level Salt Lake Center
04:08PM 42.1592 -108.2000 76° East 510 587 37,000  Level Salt Lake Center
04:09PM 42.1967 -107.9922 76° East 510 587 37,000  Level Salt Lake Center
04:10PM 42.2294 -107.8156 76° East 508 585 37,000  Level Salt Lake Center
04:11PM 42.2608 -107.6361 77° East 512 589 37,000  Level Salt Lake Center
04:12PM 42.2956 -107.4281 77° East 510 587 37,000  Level Salt Lake Center
04:13PM 42.3294 -107.2167 78° East 513 590 37,000  Level Denver Center
04:14PM 42.3611 -107.0378 76° East 513 590 37,000  Level Denver Center
04:15PM 42.4025 -106.7914 77° East 508 585 37,000  Level Denver Center
04:16PM 42.4322 -106.6139 77° East 506 582 37,000  Level Denver Center
04:17PM 42.4667 -106.4050 77° East 508 585 37,000  Level Denver Center
04:18PM 42.4958 -106.2264 77° East 509 586 37,000  Level Denver Center
04:19PM 42.5292 -106.0178 78° East 507 583 37,000  Level Denver Center
04:20PM 42.5581 -105.8386 78° East 508 585 37,000  Level Denver Center
04:21PM 42.5842 -105.6597 79° East 505 581 37,000  Level Denver Center
04:22PM 42.6156 -105.4519 78° East 503 579 37,000  Level Denver Center
04:23PM 42.6428 -105.2758 78° East 499 574 37,000  Level Denver Center
04:24PM 42.6744 -105.0711 78° East 497 572 37,000  Level Denver Center
04:26PM 42.7006 -104.8972 78° East 491 565 37,000  Level Denver Center
04:27PM 42.7314 -104.6925 78° East 490 564 37,000  Level Denver Center
04:28PM 42.7572 -104.5142 79° East 490 564 37,000  Level Denver Center
04:29PM 42.7825 -104.3369 79° East 492 566 37,000  Level Denver Center
04:30PM 42.8125 -104.1314 79° East 494 568 37,000  Level Denver Center
04:31PM 42.8589 -103.9608 70° East 499 574 37,000  Level Denver Center
04:32PM 42.9142 -103.7631 69° East 499 574 37,000  Level Denver Center
04:33PM 42.9592 -103.5928 70° East 499 574 37,000  Level Denver Center
04:34PM 43.0108 -103.3953 70° East 496 571 37,000  Level Denver Center
04:35PM 43.0542 -103.2247 71° East 497 572 37,000  Level Denver Center
04:36PM 43.1056 -103.0253 71° East 498 573 37,000  Level Denver Center
04:37PM 43.1522 -102.8567 69° East 497 572 37,000  Level Denver Center
04:38PM 43.1958 -102.6842 71° East 499 574 37,000  Level Denver Center
04:39PM 43.2475 -102.4856 70° East 496 571 37,000  Level Denver Center
04:40PM 43.2917 -102.3153 70° East 496 571 37,000  Level Denver Center
04:41PM 43.3394 -102.1244 71° East 496 571 37,000  Level Denver Center
04:42PM 43.3869 -101.9508 69° East 490 564 37,000  Level Denver Center
04:43PM 43.4322 -101.7708 71° East 498 573 37,000  Level Denver Center
04:44PM 43.4817 -101.5533 73° East 496 571 37,000  Level Denver Center
04:45PM 43.5272 -101.3764 70° East 495 570 37,000  Level Denver Center
04:46PM 43.5722 -101.1994 71° East 493 567 37,000  Level Denver Center
04:47PM 43.5983 -101.0944 71° East 493 567 37,000  Level Minneapolis Center
04:48PM 43.6417 -100.9158 71° East 492 566 37,000  Level Minneapolis Center
04:49PM 43.6847 -100.7386 71° East 490 564 37,000  Level Minneapolis Center
04:50PM 43.7267 -100.5617 72° East 488 562 37,000  Level Minneapolis Center
04:51PM 43.7683 -100.3814 72° East 491 565 37,000  Level Minneapolis Center
04:52PM 43.8100 -100.2031 72° East 491 565 37,000  Level Minneapolis Center
04:53PM 43.8525 -99.9864 75° East 491 565 37,000  Level Minneapolis Center
04:54PM 43.8503 -99.8033 91° East 482 555 37,000  Level Minneapolis Center
04:55PM 43.8394 -99.6175 95° East 485 558 37,000  Level Minneapolis Center
04:56PM 43.8297 -99.4350 94° East 480 552 37,000  Level Minneapolis Center
04:57PM 43.8197 -99.2533 94° East 477 549 37,000  Level Minneapolis Center
04:58PM 43.8067 -99.0339 95° East 477 549 37,000  Level Minneapolis Center
04:59PM 43.7956 -98.8536 95° East 474 545 37,000  Level Minneapolis Center
05:00PM 43.7850 -98.6700 94° East 479 551 37,000  Level Minneapolis Center
05:01PM 43.7731 -98.4994 95° East 475 547 37,000  Level Minneapolis Center
05:02PM 43.7597 -98.2811 95° East 477 549 37,000  Level Minneapolis Center
05:03PM 43.7469 -98.0994 95° East 476 548 37,000  Level Minneapolis Center
05:04PM 43.7344 -97.9186 95° East 474 545 37,000  Level Minneapolis Center
05:05PM 43.7222 -97.7369 95° East 477 549 37,000  Level Minneapolis Center
05:06PM 43.7086 -97.5556 96° East 478 550 37,000  Level Minneapolis Center
05:07PM 43.6953 -97.3750 96° East 475 547 37,000  Level Minneapolis Center
05:08PM 43.6786 -97.1581 96° East 476 548 37,000  Level Minneapolis Center
05:10PM 43.6656 -96.9794 96° East 472 543 37,000  Level Minneapolis Center
05:11PM 43.6503 -96.8000 97° East 473 544 37,000  Level Minneapolis Center
05:12PM 43.6594 -96.6217 86° East 469 540 37,000  Level Minneapolis Center
05:13PM 43.6706 -96.4408 85° East 474 545 37,000  Level Minneapolis Center
05:14PM 43.6844 -96.2278 85° East 470 541 37,000  Level Minneapolis Center
05:15PM 43.6947 -96.0483 85° East 472 543 37,000  Level Minneapolis Center
05:16PM 43.7056 -95.8692 85° East 472 543 37,000  Level Minneapolis Center
05:17PM 43.7158 -95.6889 85° East 476 548 37,000  Level Minneapolis Center
05:18PM 43.7258 -95.5092 86° East 474 545 37,000  Level Minneapolis Center
05:19PM 43.7358 -95.3300 86° East 473 544 37,000  Level Minneapolis Center
05:20PM 43.7464 -95.1161 86° East 468 539 37,000  Level Minneapolis Center
05:21PM 43.7561 -94.9364 86° East 470 541 37,000  Level Minneapolis Center
05:22PM 43.7647 -94.7556 86° East 472 543 37,000  Level Minneapolis Center
05:23PM 43.7736 -94.5750 86° East 473 544 37,000  Level Minneapolis Center
05:24PM 43.7819 -94.3586 87° East 471 542 37,000  Level Minneapolis Center
05:25PM 43.7892 -94.1817 87° East 469 540 37,000  Level Minneapolis Center
05:26PM 43.7975 -94.0003 86° East 474 545 37,000 -540 Level Minneapolis Center
05:27PM 43.8044 -93.8244 87° East 464 534 35,900 -1,440 Descending Minneapolis Center
05:28PM 43.8108 -93.6547 87° East 451 519 34,100 -2,040 Descending Minneapolis Center
05:29PM 43.8186 -93.4461 87° East 455 524 31,800 -1,980 Descending Minneapolis Center
05:30PM 43.8244 -93.3017 87° East 467 537 30,100 -2,100 Descending Minneapolis Center
05:31PM 43.8317 -93.0844 87° East 473 544 27,500 -2,340 Descending Minneapolis Center
05:32PM 43.8381 -92.9064 87° East 469 540 25,300 -2,160 Descending Minneapolis Center
05:33PM 43.8442 -92.7272 87° East 469 540 23,100 -2,340 Descending Minneapolis Center
05:34PM 43.8506 -92.5192 87° East 457 526 20,500 -2,280 Descending Minneapolis Center
05:35PM 43.8547 -92.3619 88° East 423 487 18,400 -1,980 Descending Minneapolis Center
05:36PM 43.8589 -92.2133 88° East 397 457 16,500 -1,920 Descending Minneapolis Center
05:37PM 43.8619 -92.0667 88° East 387 445 14,500 -1,980 Descending Minneapolis Center
05:38PM 43.8661 -91.9231 88° East 379 436 12,500 -2,160 Descending Minneapolis Center
05:40PM 43.8719 -91.7597 87° East 364 419 10,100 -2,160 Descending Minneapolis Center
05:41PM 43.8742 -91.6467 88° East 307 353 8,100 -2,040 Descending Minneapolis Center
05:42PM 43.8761 -91.5303 89° East 290 334 6,000 -2,040 Descending Minneapolis Center
05:43PM 43.8994 -91.4353 71° East 257 296 4,000 -1,500 Descending Minneapolis Center
05:44PM 43.9250 -91.3561 66° East 207 238 2,900 -780 Descending Minneapolis Center
05:45PM 43.9372 -91.2953 74° East 199 229 2,400 -540 Descending Minneapolis Center